createdAt,value
2023-05-07T00:00:20.138Z,101758.91
2023-05-07T00:02:47.418Z,101754.47
2023-05-07T00:05:14.634Z,101763.56
2023-05-07T00:07:41.666Z,101759.13
2023-05-07T00:10:09.215Z,101762.63
2023-05-07T00:12:36.051Z,101752.66
2023-05-07T00:15:09.166Z,101770.66
2023-05-07T00:17:35.891Z,101768.09
2023-05-07T00:20:02.756Z,101769.91
2023-05-07T00:22:31.180Z,101777.03
2023-05-07T00:25:04.258Z,101773.47
2023-05-07T00:27:32.646Z,101774.50
2023-05-07T00:29:59.215Z,101777.25
2023-05-07T00:32:25.855Z,101771.69
2023-05-07T00:34:53.267Z,101768.13
2023-05-07T00:37:19.818Z,101771.81
2023-05-07T00:39:46.390Z,101764.63
2023-05-07T00:42:12.974Z,101772.66
2023-05-07T00:44:39.550Z,101770.91
2023-05-07T00:47:06.775Z,101776.25
2023-05-07T00:49:43.684Z,101774.50
2023-05-07T00:52:15.490Z,101778.09
2023-05-07T00:54:47.583Z,101782.56
2023-05-07T00:57:19.396Z,101780.81
2023-05-07T00:59:52.266Z,101775.44
2023-05-07T01:02:18.979Z,101770.06
2023-05-07T01:04:45.683Z,101779.06
2023-05-07T01:07:15.193Z,101777.34
2023-05-07T01:09:41.859Z,101779.06
2023-05-07T01:12:09.353Z,101779.97
2023-05-07T01:14:44.385Z,101778.97
2023-05-07T01:17:17.283Z,101773.66
2023-05-07T01:19:44.765Z,101779.09
2023-05-07T01:22:33.379Z,101770.19
2023-05-07T01:25:09.225Z,101780.88
2023-05-07T01:27:37.547Z,101778.13
2023-05-07T01:30:10.868Z,101775.38
2023-05-07T01:32:55.547Z,101772.75
2023-05-07T01:35:28.920Z,101781.66
2023-05-07T01:37:55.327Z,101778.94
2023-05-07T01:40:23.903Z,101781.69
2023-05-07T01:42:50.552Z,101778.97
2023-05-07T01:45:17.180Z,101773.66
2023-05-07T01:47:43.993Z,101780.00
2023-05-07T01:50:11.155Z,101776.34
2023-05-07T01:52:39.199Z,101775.47
2023-05-07T01:55:09.654Z,101777.22
2023-05-07T01:57:36.453Z,101773.84
2023-05-07T02:00:11.834Z,101780.88
2023-05-07T02:02:40.220Z,101781.81
2023-05-07T02:05:07.140Z,101768.38
2023-05-07T02:07:33.886Z,101771.97
2023-05-07T02:10:00.588Z,101775.47
2023-05-07T02:12:31.450Z,101771.78
2023-05-07T02:15:03.235Z,101770.13
2023-05-07T02:18:01.086Z,101771.91
2023-05-07T02:20:27.820Z,101767.47
2023-05-07T02:23:02.856Z,101771.91
2023-05-07T02:25:33.385Z,101763.00
2023-05-07T02:28:08.384Z,101769.31
2023-05-07T02:30:38.238Z,101764.81
2023-05-07T02:33:04.982Z,101769.34
2023-05-07T02:35:31.986Z,101766.59
2023-05-07T02:37:58.626Z,101771.13
2023-05-07T02:40:25.471Z,101775.66
2023-05-07T02:42:52.024Z,101772.91
2023-05-07T02:45:20.330Z,101774.69
2023-05-07T02:47:50.927Z,101772.91
2023-05-07T02:50:20.126Z,101775.59
2023-05-07T02:52:46.733Z,101772.91
2023-05-07T02:55:13.394Z,101772.03
2023-05-07T02:57:39.976Z,101770.31
2023-05-07T03:00:19.167Z,101773.91
2023-05-07T03:02:46.208Z,101775.66
2023-05-07T03:05:15.741Z,101779.25
2023-05-07T03:07:46.195Z,101774.94
2023-05-07T03:10:13.037Z,101774.00
2023-05-07T03:12:45.187Z,101781.97
2023-05-07T03:15:14.997Z,101782.94
2023-05-07T03:17:41.660Z,101772.19
2023-05-07T03:20:21.454Z,101773.94
2023-05-07T03:23:01.051Z,101773.09
2023-05-07T03:25:27.614Z,101774.00
2023-05-07T03:27:54.275Z,101770.41
2023-05-07T03:30:21.225Z,101767.63
2023-05-07T03:32:50.346Z,101772.38
2023-05-07T03:35:16.914Z,101780.41
2023-05-07T03:37:43.548Z,101779.53
2023-05-07T03:40:11.809Z,101772.19
2023-05-07T03:42:38.813Z,101771.34
2023-05-07T03:45:06.254Z,101770.47
2023-05-07T03:47:32.840Z,101773.16
2023-05-07T03:50:00.445Z,101777.63
2023-05-07T03:52:27.169Z,101784.03
2023-05-07T03:55:03.211Z,101768.91
2023-05-07T03:57:32.357Z,101783.06
2023-05-07T03:59:58.893Z,101784.91
2023-05-07T04:02:25.688Z,101799.28
2023-05-07T04:04:53.106Z,101799.22
2023-05-07T04:07:20.444Z,101796.63
2023-05-07T04:09:47.012Z,101801.09
2023-05-07T04:12:13.576Z,101802.84
2023-05-07T04:14:40.197Z,101807.28
2023-05-07T04:17:08.093Z,101811.00
2023-05-07T04:19:35.653Z,101809.28
2023-05-07T04:22:05.288Z,101804.59
2023-05-07T04:24:34.657Z,101795.69
2023-05-07T04:27:01.186Z,101800.16
2023-05-07T04:29:28.158Z,101808.34
2023-05-07T04:31:58.298Z,101803.94
2023-05-07T04:34:27.982Z,101810.22
2023-05-07T04:36:54.516Z,101807.69
2023-05-07T04:39:21.077Z,101813.84
2023-05-07T04:41:47.671Z,101813.03
2023-05-07T04:44:14.244Z,101806.75
2023-05-07T04:46:40.918Z,101822.03
2023-05-07T04:49:07.459Z,101817.53
2023-05-07T04:51:34.055Z,101817.47
2023-05-07T04:54:00.992Z,101821.97
2023-05-07T04:56:30.075Z,101815.66
2023-05-07T04:58:56.929Z,101812.16
2023-05-07T05:01:23.524Z,101810.44
2023-05-07T05:03:50.157Z,101810.34
2023-05-07T05:06:18.305Z,101815.78
2023-05-07T05:08:44.924Z,101812.28
2023-05-07T05:11:11.690Z,101815.84
2023-05-07T05:13:38.298Z,101815.94
2023-05-07T05:16:05.168Z,101821.19
2023-05-07T05:18:33.312Z,101832.03
2023-05-07T05:20:59.876Z,101832.00
2023-05-07T05:23:31.428Z,101832.00
2023-05-07T05:25:58.781Z,101827.41
2023-05-07T05:28:25.339Z,101835.53
2023-05-07T05:30:51.963Z,101832.81
2023-05-07T05:33:18.505Z,101829.22
2023-05-07T05:35:45.121Z,101837.38
2023-05-07T05:38:11.675Z,101844.63
2023-05-07T05:40:38.242Z,101843.59
2023-05-07T05:43:07.836Z,101854.44
2023-05-07T05:45:34.509Z,101853.50
2023-05-07T05:48:01.549Z,101851.78
2023-05-07T05:50:28.138Z,101842.81
2023-05-07T05:52:54.842Z,101847.34
2023-05-07T05:55:21.719Z,101850.88
2023-05-07T05:57:49.221Z,101850.06
2023-05-07T06:00:16.950Z,101853.50
2023-05-07T06:02:46.783Z,101857.09
2023-05-07T06:05:15.145Z,101854.50
2023-05-07T06:07:41.883Z,101847.31
2023-05-07T06:10:09.072Z,101852.72
2023-05-07T06:12:35.790Z,101856.22
2023-05-07T06:15:02.657Z,101856.34
2023-05-07T06:17:29.327Z,101855.44
2023-05-07T06:19:58.393Z,101864.34
2023-05-07T06:22:25.109Z,101863.50
2023-05-07T06:24:56.979Z,101853.63
2023-05-07T06:27:23.566Z,101855.44
2023-05-07T06:29:50.250Z,101862.63
2023-05-07T06:32:20.889Z,101858.19
2023-05-07T06:34:47.484Z,101863.56
2023-05-07T06:37:14.070Z,101866.31
2023-05-07T06:39:40.707Z,101875.28
2023-05-07T06:42:09.105Z,101875.28
2023-05-07T06:44:35.656Z,101871.72
2023-05-07T06:47:02.281Z,101873.47
2023-05-07T06:49:28.922Z,101884.22
2023-05-07T06:51:55.506Z,101882.47
2023-05-07T06:54:22.107Z,101881.56
2023-05-07T06:56:48.681Z,101878.84
2023-05-07T06:59:15.298Z,101886.00
2023-05-07T07:01:41.923Z,101885.09
2023-05-07T07:04:08.658Z,101889.59
2023-05-07T07:06:35.286Z,101884.22
2023-05-07T07:09:01.912Z,101895.88
2023-05-07T07:11:29.699Z,101893.22
2023-05-07T07:13:58.694Z,101897.72
2023-05-07T07:16:25.382Z,101903.97
2023-05-07T07:18:52.254Z,101902.19
2023-05-07T07:21:18.827Z,101908.44
2023-05-07T07:23:45.463Z,101901.28
2023-05-07T07:26:16.720Z,101903.97
2023-05-07T07:28:45.616Z,101896.78
2023-05-07T07:31:14.143Z,101898.56
2023-05-07T07:33:42.051Z,101895.88
2023-05-07T07:36:08.856Z,101900.38
2023-05-07T07:38:35.487Z,101895.00
2023-05-07T07:41:03.911Z,101907.53
2023-05-07T07:43:33.595Z,101911.13
2023-05-07T07:46:02.870Z,101906.69
2023-05-07T07:48:29.469Z,101923.66
2023-05-07T07:50:56.013Z,101914.72
2023-05-07T07:53:22.701Z,101918.28
2023-05-07T07:55:52.138Z,101913.81
2023-05-07T07:58:20.717Z,101914.72
2023-05-07T08:00:48.238Z,101913.81
2023-05-07T08:03:15.573Z,101916.50
2023-05-07T08:05:42.243Z,101920.03
2023-05-07T08:08:10.416Z,101927.25
2023-05-07T08:10:40.288Z,101925.47
2023-05-07T08:13:09.958Z,101924.53
2023-05-07T08:15:36.578Z,101911.13
2023-05-07T08:18:03.394Z,101915.59
2023-05-07T08:20:30.164Z,101920.09
2023-05-07T08:22:56.820Z,101913.81
2023-05-07T08:25:24.943Z,101912.88
2023-05-07T08:27:51.621Z,101914.72
2023-05-07T08:30:18.186Z,101910.22
2023-05-07T08:32:44.847Z,101918.25
2023-05-07T08:35:11.563Z,101916.50
2023-05-07T08:37:38.143Z,101915.56
2023-05-07T08:40:10.194Z,101915.59
2023-05-07T08:42:41.166Z,101923.63
2023-05-07T08:45:11.735Z,101922.75
2023-05-07T08:47:48.189Z,101922.72
2023-05-07T08:50:14.845Z,101916.47
2023-05-07T08:52:41.611Z,101920.03
2023-05-07T08:55:09.433Z,101920.94
2023-05-07T08:57:40.487Z,101929.00
2023-05-07T09:00:08.369Z,101932.53
2023-05-07T09:02:36.745Z,101929.81
2023-05-07T09:05:04.014Z,101933.44
2023-05-07T09:07:31.443Z,101919.06
2023-05-07T09:10:05.537Z,101925.38
2023-05-07T09:12:32.390Z,101929.88
2023-05-07T09:15:00.366Z,101927.16
2023-05-07T09:17:26.952Z,101925.38
2023-05-07T09:19:54.486Z,101928.94
2023-05-07T09:22:22.003Z,101923.53
2023-05-07T09:24:52.942Z,101920.78
2023-05-07T09:27:19.545Z,101924.41
2023-05-07T09:29:46.253Z,101930.63
2023-05-07T09:32:13.086Z,101918.97
2023-05-07T09:34:39.844Z,101924.41
2023-05-07T09:37:09.380Z,101928.91
2023-05-07T09:39:42.508Z,101912.78
2023-05-07T09:42:10.904Z,101919.88
2023-05-07T09:44:37.484Z,101925.28
2023-05-07T09:47:06.684Z,101925.25
2023-05-07T09:49:48.956Z,101921.66
2023-05-07T09:52:16.105Z,101928.78
2023-05-07T09:54:44.431Z,101930.50
2023-05-07T09:57:16.955Z,101922.38
2023-05-07T09:59:44.975Z,101916.06
2023-05-07T10:02:12.519Z,101921.38
2023-05-07T10:04:39.363Z,101914.16
2023-05-07T10:07:06.800Z,101915.00
2023-05-07T10:09:33.581Z,101923.03
2023-05-07T10:12:03.148Z,101935.59
2023-05-07T10:14:30.476Z,101937.31
2023-05-07T10:17:00.676Z,101937.31
2023-05-07T10:19:27.569Z,101930.19
2023-05-07T10:22:06.149Z,101934.66
2023-05-07T10:24:37.794Z,101926.56
2023-05-07T10:27:09.490Z,101927.44
2023-05-07T10:29:50.879Z,101931.88
2023-05-07T10:32:42.166Z,101930.00
2023-05-07T10:35:33.762Z,101928.19
2023-05-07T10:38:01.644Z,101933.63
2023-05-07T10:40:28.291Z,101935.41
2023-05-07T10:43:10.251Z,101939.91
2023-05-07T10:45:37.439Z,101938.97
2023-05-07T10:50:48.930Z,101952.38
2023-05-07T10:53:20.993Z,101940.75
2023-05-07T10:55:52.811Z,101944.28
2023-05-07T11:01:00.991Z,101941.56
2023-05-07T11:03:32.974Z,101935.25
2023-05-07T11:06:17.956Z,101936.97
2023-05-07T11:08:57.012Z,101938.72
2023-05-07T11:11:47.771Z,101933.31
2023-05-07T11:14:15.818Z,101932.41
2023-05-07T11:16:47.284Z,101930.59
2023-05-07T11:19:14.024Z,101925.97
2023-05-07T11:21:45.427Z,101928.75
2023-05-07T11:24:16.575Z,101930.56
2023-05-07T11:26:46.029Z,101920.56
2023-05-07T11:29:23.404Z,101930.28
2023-05-07T11:34:35.240Z,101929.44
2023-05-07T11:37:03.770Z,101931.22
2023-05-07T11:39:34.338Z,101934.59
2023-05-07T11:42:01.487Z,101941.78
2023-05-07T11:44:49.210Z,101939.97
2023-05-07T11:47:25.064Z,101938.09
2023-05-07T11:49:57.375Z,101947.00
2023-05-07T11:52:28.487Z,101948.84
2023-05-07T11:54:56.453Z,101949.69
2023-05-07T11:57:26.674Z,101950.66
2023-05-07T11:59:59.906Z,101955.03
2023-05-07T12:02:29.449Z,101945.94
2023-05-07T12:04:56.350Z,101946.88
2023-05-07T12:07:24.861Z,101954.06
2023-05-07T12:09:51.552Z,101948.66
2023-05-07T12:12:19.588Z,101959.44
2023-05-07T12:17:27.535Z,101956.59
2023-05-07T12:19:54.765Z,101952.91
2023-05-07T12:22:33.186Z,101946.53
2023-05-07T12:25:00.225Z,101946.47
2023-05-07T12:27:29.639Z,101949.91
2023-05-07T12:30:00.467Z,101948.06
2023-05-07T12:32:27.084Z,101952.56
2023-05-07T12:34:53.716Z,101951.59
2023-05-07T12:37:25.411Z,101951.50
2023-05-07T12:40:13.643Z,101953.19
2023-05-07T12:42:41.556Z,101952.25
2023-05-07T12:45:18.416Z,101952.25
2023-05-07T12:47:47.915Z,101946.88
2023-05-07T12:50:18.834Z,101947.75
2023-05-07T12:52:49.238Z,101947.66
2023-05-07T12:55:16.926Z,101936.84
2023-05-07T12:57:45.324Z,101938.56
2023-05-07T13:00:14.410Z,101942.09
2023-05-07T13:02:44.521Z,101950.06
2023-05-07T13:05:11.274Z,101944.75
2023-05-07T13:07:38.537Z,101951.03
2023-05-07T13:10:08.657Z,101951.84
2023-05-07T13:12:36.016Z,101951.94
2023-05-07T13:15:02.649Z,101948.34
2023-05-07T13:17:29.342Z,101951.03
2023-05-07T13:19:55.923Z,101942.13
2023-05-07T13:22:30.708Z,101942.13
2023-05-07T13:24:58.499Z,101938.50
2023-05-07T13:27:25.228Z,101951.06
2023-05-07T13:29:54.289Z,101948.28
2023-05-07T13:32:21.036Z,101949.13
2023-05-07T13:34:47.622Z,101954.59
2023-05-07T13:37:14.200Z,101951.84
2023-05-07T13:39:41.879Z,101958.13
2023-05-07T13:42:08.440Z,101954.59
2023-05-07T13:44:35.057Z,101960.72
2023-05-07T13:47:03.659Z,101958.00
2023-05-07T13:49:30.664Z,101963.25
2023-05-07T13:51:57.778Z,101950.66
2023-05-07T13:54:25.050Z,101950.66
2023-05-07T13:56:51.753Z,101956.03
2023-05-07T13:59:18.318Z,101948.72
2023-05-07T14:01:44.991Z,101946.19
2023-05-07T14:04:14.385Z,101941.38
2023-05-07T14:06:41.036Z,101948.56
2023-05-07T14:09:08.021Z,101941.53
2023-05-07T14:11:36.246Z,101935.09
2023-05-07T14:14:03.052Z,101932.28
2023-05-07T14:16:29.810Z,101924.94
2023-05-07T14:18:58.629Z,101932.09
2023-05-07T14:21:31.322Z,101927.59
2023-05-07T14:24:34.634Z,101936.38
2023-05-07T14:27:03.949Z,101932.25
2023-05-07T14:29:33.755Z,101938.59
2023-05-07T14:32:00.329Z,101934.16
2023-05-07T14:34:26.876Z,101929.53
2023-05-07T14:36:53.610Z,101932.41
2023-05-07T14:39:20.165Z,101933.13
2023-05-07T14:41:47.513Z,101944.00
2023-05-07T14:44:14.149Z,101938.47
2023-05-07T14:46:40.814Z,101930.31
2023-05-07T14:49:09.192Z,101937.44
2023-05-07T14:51:41.201Z,101940.13
2023-05-07T14:56:50.473Z,101941.88
2023-05-07T14:59:19.106Z,101942.75
2023-05-07T15:01:46.536Z,101951.88
2023-05-07T15:04:17.906Z,101941.84
2023-05-07T15:06:53.005Z,101940.84
2023-05-07T15:09:19.554Z,101943.56
2023-05-07T15:11:46.095Z,101952.63
2023-05-07T15:14:12.633Z,101944.41
2023-05-07T15:16:39.320Z,101946.09
2023-05-07T15:19:09.434Z,101951.50
2023-05-07T15:21:41.789Z,101956.09
2023-05-07T15:24:14.579Z,101952.44
2023-05-07T15:26:48.386Z,101955.09
2023-05-07T15:29:15.046Z,101953.19
2023-05-07T15:31:41.697Z,101959.53
2023-05-07T15:34:08.297Z,101956.81
2023-05-07T15:36:34.850Z,101956.94
2023-05-07T15:39:04.466Z,101961.44
2023-05-07T15:41:31.469Z,101950.75
2023-05-07T15:44:00.670Z,101952.50
2023-05-07T15:46:27.366Z,101944.41
2023-05-07T15:48:54.270Z,101951.53
2023-05-07T15:51:21.240Z,101945.25
2023-05-07T15:53:48.166Z,101950.66
2023-05-07T15:56:14.859Z,101945.22
2023-05-07T15:58:41.507Z,101947.91
2023-05-07T16:01:08.122Z,101940.72
2023-05-07T16:03:36.727Z,101946.97
2023-05-07T16:06:03.664Z,101953.22
2023-05-07T16:08:33.924Z,101952.34
2023-05-07T16:11:01.993Z,101951.44
2023-05-07T16:13:28.543Z,101955.03
2023-05-07T16:15:59.072Z,101959.47
2023-05-07T16:18:25.767Z,101957.72
2023-05-07T16:21:02.108Z,101955.94
2023-05-07T16:23:31.969Z,101955.03
2023-05-07T16:26:02.482Z,101963.09
2023-05-07T16:28:37.448Z,101962.25
2023-05-07T16:31:10.051Z,101967.66
2023-05-07T16:33:36.857Z,101966.75
2023-05-07T16:36:03.547Z,101958.59
2023-05-07T16:38:33.840Z,101954.94
2023-05-07T16:41:07.437Z,101969.31
2023-05-07T16:43:39.435Z,101965.78
2023-05-07T16:46:06.051Z,101972.09
2023-05-07T16:48:32.607Z,101972.97
2023-05-07T16:51:00.965Z,101972.00
2023-05-07T16:53:27.537Z,101969.31
2023-05-07T16:55:56.502Z,101968.41
2023-05-07T16:58:23.173Z,101974.72
2023-05-07T17:00:51.212Z,101978.28
2023-05-07T17:03:18.801Z,101975.53
2023-05-07T17:05:45.699Z,101974.66
2023-05-07T17:08:13.831Z,101978.25
2023-05-07T17:10:41.143Z,101980.06
2023-05-07T17:13:07.854Z,101976.44
2023-05-07T17:15:38.497Z,101974.72
2023-05-07T17:20:48.452Z,101974.63
2023-05-07T17:23:20.599Z,101987.25
2023-05-07T17:25:53.229Z,101984.50
2023-05-07T17:28:19.809Z,101991.75
2023-05-07T17:30:46.585Z,101984.59
2023-05-07T17:33:20.844Z,101983.63
2023-05-07T17:35:47.980Z,101986.47
2023-05-07T17:38:15.314Z,101975.63
2023-05-07T17:40:41.947Z,101994.56
2023-05-07T17:43:08.525Z,101993.66
2023-05-07T17:45:36.004Z,101995.44
2023-05-07T17:48:03.520Z,101997.31
2023-05-07T17:50:30.166Z,101996.41
2023-05-07T17:52:56.751Z,102001.81
2023-05-07T17:55:23.311Z,102009.06
2023-05-07T17:57:49.886Z,102008.13
2023-05-07T18:00:16.548Z,102008.19
2023-05-07T18:02:44.798Z,102005.47
2023-05-07T18:05:11.526Z,102010.88
2023-05-07T18:07:38.121Z,102014.44
2023-05-07T18:10:04.968Z,102012.66
2023-05-07T18:12:31.510Z,102018.06
2023-05-07T18:14:58.091Z,102019.94
2023-05-07T18:17:26.399Z,102019.84
2023-05-07T18:19:54.996Z,102018.06
2023-05-07T18:22:22.979Z,102026.25
2023-05-07T18:24:49.987Z,102028.94
2023-05-07T18:27:16.831Z,102029.91
2023-05-07T18:29:43.463Z,102028.03
2023-05-07T18:32:10.087Z,102028.94
2023-05-07T18:34:38.243Z,102032.63
2023-05-07T18:37:04.838Z,102038.00
2023-05-07T18:39:31.936Z,102035.31
2023-05-07T18:41:58.862Z,102041.63
2023-05-07T18:44:25.452Z,102034.47
2023-05-07T18:46:52.071Z,102041.72
2023-05-07T18:49:18.726Z,102045.28
2023-05-07T18:51:45.724Z,102052.50
2023-05-07T18:54:12.394Z,102054.34
2023-05-07T18:56:38.964Z,102056.13
2023-05-07T18:59:05.551Z,102049.81
2023-05-07T19:01:32.214Z,102049.94
2023-05-07T19:03:58.891Z,102046.41
2023-05-07T19:06:26.258Z,102059.91
2023-05-07T19:08:52.829Z,102053.59
2023-05-07T19:11:19.384Z,102053.59
2023-05-07T19:13:45.925Z,102062.69
2023-05-07T19:16:13.960Z,102063.50
2023-05-07T19:18:41.539Z,102060.81
2023-05-07T19:21:08.346Z,102064.47
2023-05-07T19:23:41.749Z,102063.63
2023-05-07T19:26:11.730Z,102068.16
2023-05-07T19:28:39.179Z,102079.84
2023-05-07T19:31:07.068Z,102084.41
2023-05-07T19:33:36.671Z,102088.88
2023-05-07T19:36:03.505Z,102090.75
2023-05-07T19:38:30.056Z,102089.78
2023-05-07T19:40:57.755Z,102092.56
2023-05-07T19:43:24.321Z,102095.31
2023-05-07T19:45:55.129Z,102099.78
2023-05-07T19:48:21.696Z,102093.44
2023-05-07T19:50:49.704Z,102101.63
2023-05-07T19:53:16.233Z,102098.91
2023-05-07T19:55:42.794Z,102098.00
2023-05-07T19:58:10.230Z,102104.38
2023-05-07T20:00:36.860Z,102101.69
2023-05-07T20:03:04.295Z,102108.03
2023-05-07T20:05:30.953Z,102114.28
2023-05-07T20:07:57.617Z,102111.59
2023-05-07T20:10:27.220Z,102113.59
2023-05-07T20:12:53.779Z,102115.38
2023-05-07T20:15:20.373Z,102119.00
2023-05-07T20:17:47.016Z,102128.91
2023-05-07T20:20:14.009Z,102121.78
2023-05-07T20:22:40.812Z,102123.59
2023-05-07T20:25:14.943Z,102127.22
2023-05-07T20:27:41.827Z,102127.28
2023-05-07T20:30:08.797Z,102121.91
2023-05-07T20:32:36.427Z,102127.31
2023-05-07T20:35:03.376Z,102130.94
2023-05-07T20:37:30.038Z,102132.72
2023-05-07T20:39:56.619Z,102136.31
2023-05-07T20:42:23.199Z,102136.41
2023-05-07T20:44:49.738Z,102136.38
2023-05-07T20:47:16.323Z,102137.25
2023-05-07T20:49:43.047Z,102138.22
2023-05-07T20:52:09.812Z,102139.19
2023-05-07T20:54:40.297Z,102149.03
2023-05-07T20:57:07.499Z,102144.56
2023-05-07T20:59:34.937Z,102142.84
2023-05-07T21:02:04.554Z,102146.38
2023-05-07T21:04:32.226Z,102150.00
2023-05-07T21:06:59.937Z,102141.97
2023-05-07T21:09:26.561Z,102146.47
2023-05-07T21:11:53.693Z,102135.75
2023-05-07T21:14:21.183Z,102140.16
2023-05-07T21:16:47.811Z,102144.75
2023-05-07T21:19:14.382Z,102142.81
2023-05-07T21:21:42.293Z,102151.03
2023-05-07T21:24:08.947Z,102149.25
2023-05-07T21:26:35.558Z,102148.44
2023-05-07T21:29:02.206Z,102155.63
2023-05-07T21:31:28.838Z,102156.56
2023-05-07T21:33:57.331Z,102159.19
2023-05-07T21:36:23.913Z,102161.91
2023-05-07T21:38:50.543Z,102159.22
2023-05-07T21:41:17.103Z,102167.22
2023-05-07T21:43:46.045Z,102165.53
2023-05-07T21:46:12.631Z,102158.31
2023-05-07T21:48:39.226Z,102169.22
2023-05-07T21:51:07.411Z,102163.88
2023-05-07T21:53:34.586Z,102163.78
2023-05-07T21:56:03.074Z,102155.69
2023-05-07T21:58:30.882Z,102161.09
2023-05-07T22:00:58.122Z,102162.09
2023-05-07T22:03:24.824Z,102167.56
2023-05-07T22:05:51.538Z,102171.09
2023-05-07T22:08:18.225Z,102172.88
2023-05-07T22:10:44.833Z,102176.50
2023-05-07T22:13:11.501Z,102175.63
2023-05-07T22:15:49.639Z,102171.97
2023-05-07T22:18:23.674Z,102169.28
2023-05-07T22:20:53.273Z,102168.41
2023-05-07T22:23:22.186Z,102171.97
2023-05-07T22:25:48.787Z,102166.66
2023-05-07T22:28:15.913Z,102168.31
2023-05-07T22:30:44.097Z,102169.38
2023-05-07T22:33:10.708Z,102172.09
2023-05-07T22:35:37.260Z,102172.06
2023-05-07T22:38:03.818Z,102172.09
2023-05-07T22:40:30.381Z,102173.03
2023-05-07T22:42:57.743Z,102178.41
2023-05-07T22:45:24.284Z,102167.63
2023-05-07T22:47:50.896Z,102169.50
2023-05-07T22:50:18.199Z,102171.22
2023-05-07T22:52:44.753Z,102168.63
2023-05-07T22:55:11.348Z,102171.25
2023-05-07T22:57:37.914Z,102167.78
2023-05-07T23:00:06.236Z,102173.97
2023-05-07T23:02:32.980Z,102166.88
2023-05-07T23:05:01.072Z,102171.41
2023-05-07T23:07:28.052Z,102167.81
2023-05-07T23:09:54.633Z,102165.97
2023-05-07T23:12:21.195Z,102164.16
2023-05-07T23:14:47.803Z,102163.41
2023-05-07T23:17:14.432Z,102168.72
2023-05-07T23:19:41.898Z,102162.44
2023-05-07T23:22:10.471Z,102159.78
2023-05-07T23:24:37.139Z,102168.78
2023-05-07T23:27:07.315Z,102175.06
2023-05-07T23:29:34.680Z,102175.00
2023-05-07T23:32:01.833Z,102175.88
2023-05-07T23:34:28.389Z,102168.78
2023-05-07T23:36:55.775Z,102173.34
2023-05-07T23:39:22.367Z,102166.13
2023-05-07T23:41:48.920Z,102164.34
2023-05-07T23:44:18.321Z,102173.34
2023-05-07T23:46:44.943Z,102171.53
2023-05-07T23:49:11.871Z,102167.13
2023-05-07T23:51:38.477Z,102171.53
2023-05-07T23:54:05.178Z,102173.41
2023-05-07T23:56:31.869Z,102170.66
2023-05-07T23:58:58.463Z,102177.03
